sensor_id;sensor_type;location;lat;lon;timestamp;pressure;altitude;pressure_sealevel;temperature;humidity
10946;BME280;5525;42.648;23.368;2022-10-22T00:00:22;95507.28;;;7.11;100.00
10946;BME280;5525;42.648;23.368;2022-10-22T00:02:49;95514.44;;;6.92;100.00
10946;BME280;5525;42.648;23.368;2022-10-22T00:05:18;95526.22;;;6.90;100.00
10946;BME280;5525;42.648;23.368;2022-10-22T00:07:45;95521.53;;;7.11;100.00
10946;BME280;5525;42.648;23.368;2022-10-22T00:10:12;95519.25;;;6.95;100.00
10946;BME280;5525;42.648;23.368;2022-10-22T00:12:39;95521.97;;;6.89;100.00
10946;BME280;5525;42.648;23.368;2022-10-22T00:15:07;95513.03;;;6.99;100.00
10946;BME280;5525;42.648;23.368;2022-10-22T00:17:34;95521.63;;;7.01;100.00
10946;BME280;5525;42.648;23.368;2022-10-22T00:20:02;95532.94;;;6.54;100.00
10946;BME280;5525;42.648;23.368;2022-10-22T00:22:30;95520.00;;;6.61;100.00
10946;BME280;5525;42.648;23.368;2022-10-22T00:24:57;95528.03;;;6.61;100.00
10946;BME280;5525;42.648;23.368;2022-10-22T00:27:24;95519.38;;;6.74;100.00
10946;BME280;5525;42.648;23.368;2022-10-22T00:29:51;95521.72;;;6.86;100.00
10946;BME280;5525;42.648;23.368;2022-10-22T00:32:17;95520.66;;;6.87;100.00
10946;BME280;5525;42.648;23.368;2022-10-22T00:34:45;95515.28;;;6.87;100.00
10946;BME280;5525;42.648;23.368;2022-10-22T00:37:12;95508.63;;;6.79;100.00
10946;BME280;5525;42.648;23.368;2022-10-22T00:39:40;95497.34;;;6.77;100.00
10946;BME280;5525;42.648;23.368;2022-10-22T00:42:11;95479.56;;;6.53;100.00
10946;BME280;5525;42.648;23.368;2022-10-22T00:45:00;95494.97;;;6.71;100.00
10946;BME280;5525;42.648;23.368;2022-10-22T00:47:31;95502.72;;;6.77;100.00
10946;BME280;5525;42.648;23.368;2022-10-22T00:50:00;95500.59;;;6.74;100.00
10946;BME280;5525;42.648;23.368;2022-10-22T00:52:28;95495.00;;;6.66;100.00
10946;BME280;5525;42.648;23.368;2022-10-22T00:54:56;95503.91;;;6.61;100.00
10946;BME280;5525;42.648;23.368;2022-10-22T00:57:23;95485.78;;;6.38;100.00
10946;BME280;5525;42.648;23.368;2022-10-22T00:59:50;95508.78;;;6.54;100.00
10946;BME280;5525;42.648;23.368;2022-10-22T01:02:17;95494.78;;;6.62;100.00
10946;BME280;5525;42.648;23.368;2022-10-22T01:04:44;95474.19;;;6.53;100.00
10946;BME280;5525;42.648;23.368;2022-10-22T01:07:15;95472.28;;;6.53;100.00
10946;BME280;5525;42.648;23.368;2022-10-22T01:09:46;95480.66;;;6.47;100.00
10946;BME280;5525;42.648;23.368;2022-10-22T01:12:23;95478.69;;;6.62;100.00
10946;BME280;5525;42.648;23.368;2022-10-22T01:15:02;95474.66;;;6.60;100.00
10946;BME280;5525;42.648;23.368;2022-10-22T01:17:39;95465.00;;;6.64;100.00
10946;BME280;5525;42.648;23.368;2022-10-22T01:20:18;95458.78;;;6.68;100.00
10946;BME280;5525;42.648;23.368;2022-10-22T01:22:57;95458.97;;;6.77;100.00
10946;BME280;5525;42.648;23.368;2022-10-22T01:25:31;95464.09;;;6.73;100.00
10946;BME280;5525;42.648;23.368;2022-10-22T01:28:09;95463.81;;;6.75;100.00
10946;BME280;5525;42.648;23.368;2022-10-22T01:30:43;95455.72;;;6.80;100.00
10946;BME280;5525;42.648;23.368;2022-10-22T01:33:14;95436.09;;;6.51;100.00
10946;BME280;5525;42.648;23.368;2022-10-22T01:35:44;95458.00;;;6.63;100.00
10946;BME280;5525;42.648;23.368;2022-10-22T01:38:14;95454.13;;;6.45;100.00
10946;BME280;5525;42.648;23.368;2022-10-22T01:40:42;95439.38;;;6.43;100.00
10946;BME280;5525;42.648;23.368;2022-10-22T01:43:11;95435.84;;;6.47;100.00
10946;BME280;5525;42.648;23.368;2022-10-22T01:45:40;95428.84;;;6.51;100.00
10946;BME280;5525;42.648;23.368;2022-10-22T01:48:20;95429.81;;;6.65;100.00
10946;BME280;5525;42.648;23.368;2022-10-22T01:51:03;95430.59;;;6.66;100.00
10946;BME280;5525;42.648;23.368;2022-10-22T01:53:37;95436.06;;;6.56;100.00
10946;BME280;5525;42.648;23.368;2022-10-22T01:56:16;95427.56;;;6.44;100.00
10946;BME280;5525;42.648;23.368;2022-10-22T01:58:53;95443.44;;;6.35;100.00
10946;BME280;5525;42.648;23.368;2022-10-22T02:01:25;95449.63;;;6.31;100.00
10946;BME280;5525;42.648;23.368;2022-10-22T02:04:05;95459.50;;;6.40;100.00
10946;BME280;5525;42.648;23.368;2022-10-22T02:06:37;95453.44;;;6.25;100.00
10946;BME280;5525;42.648;23.368;2022-10-22T02:09:06;95461.47;;;6.25;100.00
10946;BME280;5525;42.648;23.368;2022-10-22T02:11:35;95452.63;;;6.24;100.00
10946;BME280;5525;42.648;23.368;2022-10-22T02:14:04;95451.28;;;6.27;100.00
10946;BME280;5525;42.648;23.368;2022-10-22T02:16:33;95465.91;;;6.01;100.00
10946;BME280;5525;42.648;23.368;2022-10-22T02:19:06;95444.41;;;6.11;100.00
10946;BME280;5525;42.648;23.368;2022-10-22T02:21:36;95444.16;;;6.07;100.00
10946;BME280;5525;42.648;23.368;2022-10-22T02:24:03;95443.19;;;5.88;100.00
10946;BME280;5525;42.648;23.368;2022-10-22T02:26:33;95449.47;;;6.12;100.00
10946;BME280;5525;42.648;23.368;2022-10-22T02:29:07;95439.22;;;6.24;100.00
10946;BME280;5525;42.648;23.368;2022-10-22T02:31:39;95408.94;;;6.24;100.00
10946;BME280;5525;42.648;23.368;2022-10-22T02:34:12;95443.97;;;6.37;100.00
10946;BME280;5525;42.648;23.368;2022-10-22T02:36:42;95446.25;;;6.15;100.00
10946;BME280;5525;42.648;23.368;2022-10-22T02:39:11;95455.66;;;6.08;100.00
10946;BME280;5525;42.648;23.368;2022-10-22T02:41:38;95454.72;;;5.89;100.00
10946;BME280;5525;42.648;23.368;2022-10-22T02:44:08;95461.97;;;5.73;100.00
10946;BME280;5525;42.648;23.368;2022-10-22T02:46:36;95449.69;;;5.62;100.00
10946;BME280;5525;42.648;23.368;2022-10-22T02:49:02;95458.81;;;5.61;100.00
10946;BME280;5525;42.648;23.368;2022-10-22T02:51:31;95472.72;;;5.63;100.00
10946;BME280;5525;42.648;23.368;2022-10-22T02:53:57;95470.28;;;5.72;100.00
10946;BME280;5525;42.648;23.368;2022-10-22T02:56:24;95473.19;;;5.80;100.00
10946;BME280;5525;42.648;23.368;2022-10-22T02:58:51;95475.88;;;5.90;100.00
10946;BME280;5525;42.648;23.368;2022-10-22T03:01:18;95468.03;;;6.09;100.00
10946;BME280;5525;42.648;23.368;2022-10-22T03:03:45;95470.94;;;6.12;100.00
10946;BME280;5525;42.648;23.368;2022-10-22T03:06:12;95468.81;;;6.09;100.00
10946;BME280;5525;42.648;23.368;2022-10-22T03:08:41;95441.50;;;6.02;100.00
10946;BME280;5525;42.648;23.368;2022-10-22T03:11:08;95463.25;;;5.96;100.00
10946;BME280;5525;42.648;23.368;2022-10-22T03:13:35;95460.31;;;5.92;100.00
10946;BME280;5525;42.648;23.368;2022-10-22T03:16:02;95466.47;;;5.98;100.00
10946;BME280;5525;42.648;23.368;2022-10-22T03:18:29;95469.91;;;5.98;100.00
10946;BME280;5525;42.648;23.368;2022-10-22T03:21:05;95464.63;;;5.88;100.00
10946;BME280;5525;42.648;23.368;2022-10-22T03:23:33;95445.06;;;5.88;100.00
10946;BME280;5525;42.648;23.368;2022-10-22T03:26:02;95457.59;;;5.97;100.00
10946;BME280;5525;42.648;23.368;2022-10-22T03:28:30;95452.44;;;6.11;100.00
10946;BME280;5525;42.648;23.368;2022-10-22T03:30:57;95444.94;;;6.08;100.00
10946;BME280;5525;42.648;23.368;2022-10-22T03:33:24;95431.78;;;6.16;100.00
10946;BME280;5525;42.648;23.368;2022-10-22T03:35:51;95451.28;;;6.27;100.00
10946;BME280;5525;42.648;23.368;2022-10-22T03:38:18;95454.16;;;6.35;100.00
10946;BME280;5525;42.648;23.368;2022-10-22T03:40:45;95449.09;;;6.29;100.00
10946;BME280;5525;42.648;23.368;2022-10-22T03:43:14;95436.59;;;6.19;100.00
10946;BME280;5525;42.648;23.368;2022-10-22T03:45:41;95431.78;;;6.16;100.00
10946;BME280;5525;42.648;23.368;2022-10-22T03:48:08;95421.34;;;6.15;100.00
10946;BME280;5525;42.648;23.368;2022-10-22T03:50:35;95433.84;;;6.24;100.00
10946;BME280;5525;42.648;23.368;2022-10-22T03:53:03;95428.50;;;6.24;100.00
10946;BME280;5525;42.648;23.368;2022-10-22T03:55:31;95437.72;;;6.08;100.00
10946;BME280;5525;42.648;23.368;2022-10-22T03:57:58;95455.00;;;5.72;100.00
10946;BME280;5525;42.648;23.368;2022-10-22T04:00:26;95457.47;;;5.54;100.00
10946;BME280;5525;42.648;23.368;2022-10-22T04:02:54;95449.16;;;5.60;100.00
10946;BME280;5525;42.648;23.368;2022-10-22T04:05:22;95461.66;;;5.80;100.00
10946;BME280;5525;42.648;23.368;2022-10-22T04:07:49;95452.59;;;5.86;100.00
10946;BME280;5525;42.648;23.368;2022-10-22T04:10:16;95449.06;;;5.90;100.00
10946;BME280;5525;42.648;23.368;2022-10-22T04:12:46;95441.00;;;5.95;100.00
10946;BME280;5525;42.648;23.368;2022-10-22T04:15:13;95411.72;;;6.09;100.00
10946;BME280;5525;42.648;23.368;2022-10-22T04:17:41;95433.94;;;6.09;100.00
10946;BME280;5525;42.648;23.368;2022-10-22T04:20:09;95444.69;;;6.04;100.00
10946;BME280;5525;42.648;23.368;2022-10-22T04:22:36;95442.97;;;6.23;100.00
10946;BME280;5525;42.648;23.368;2022-10-22T04:25:04;95426.84;;;6.33;100.00
10946;BME280;5525;42.648;23.368;2022-10-22T04:27:32;95433.06;;;6.62;100.00
10946;BME280;5525;42.648;23.368;2022-10-22T04:29:59;95412.38;;;6.63;100.00
10946;BME280;5525;42.648;23.368;2022-10-22T04:32:27;95418.34;;;6.88;100.00
10946;BME280;5525;42.648;23.368;2022-10-22T04:34:56;95413.50;;;6.90;100.00
10946;BME280;5525;42.648;23.368;2022-10-22T04:37:23;95406.34;;;6.81;100.00
10946;BME280;5525;42.648;23.368;2022-10-22T04:39:51;95422.53;;;7.00;100.00
10946;BME280;5525;42.648;23.368;2022-10-22T04:42:18;95402.00;;;6.85;100.00
10946;BME280;5525;42.648;23.368;2022-10-22T04:44:45;95435.06;;;7.09;100.00
10946;BME280;5525;42.648;23.368;2022-10-22T04:47:12;95432.78;;;7.21;100.00
10946;BME280;5525;42.648;23.368;2022-10-22T04:49:39;95414.25;;;6.96;100.00
10946;BME280;5525;42.648;23.368;2022-10-22T04:52:08;95431.53;;;7.14;100.00
10946;BME280;5525;42.648;23.368;2022-10-22T04:54:36;95422.16;;;7.11;100.00
10946;BME280;5525;42.648;23.368;2022-10-22T04:57:03;95433.72;;;7.12;100.00
10946;BME280;5525;42.648;23.368;2022-10-22T04:59:30;95440.63;;;7.18;100.00
10946;BME280;5525;42.648;23.368;2022-10-22T05:01:57;95432.88;;;7.16;100.00
10946;BME280;5525;42.648;23.368;2022-10-22T05:04:24;95441.97;;;7.15;100.00
10946;BME280;5525;42.648;23.368;2022-10-22T05:06:51;95447.06;;;7.17;100.00
10946;BME280;5525;42.648;23.368;2022-10-22T05:09:20;95426.06;;;7.24;100.00
10946;BME280;5525;42.648;23.368;2022-10-22T05:11:50;95452.81;;;7.34;100.00
10946;BME280;5525;42.648;23.368;2022-10-22T05:14:18;95441.50;;;7.37;100.00
10946;BME280;5525;42.648;23.368;2022-10-22T05:16:46;95466.22;;;7.10;100.00
10946;BME280;5525;42.648;23.368;2022-10-22T05:19:16;95474.75;;;7.17;100.00
10946;BME280;5525;42.648;23.368;2022-10-22T05:21:43;95472.75;;;7.28;100.00
10946;BME280;5525;42.648;23.368;2022-10-22T05:24:11;95459.94;;;7.20;100.00
10946;BME280;5525;42.648;23.368;2022-10-22T05:26:40;95466.53;;;7.32;100.00
10946;BME280;5525;42.648;23.368;2022-10-22T05:29:07;95459.31;;;7.28;100.00
10946;BME280;5525;42.648;23.368;2022-10-22T05:31:34;95470.56;;;7.35;100.00
10946;BME280;5525;42.648;23.368;2022-10-22T05:34:01;95463.53;;;7.39;100.00
10946;BME280;5525;42.648;23.368;2022-10-22T05:36:28;95464.78;;;7.46;100.00
10946;BME280;5525;42.648;23.368;2022-10-22T05:38:56;95466.56;;;7.56;100.00
10946;BME280;5525;42.648;23.368;2022-10-22T05:41:27;95463.75;;;7.66;100.00
10946;BME280;5525;42.648;23.368;2022-10-22T05:43:56;95467.44;;;7.75;100.00
10946;BME280;5525;42.648;23.368;2022-10-22T05:46:25;95478.69;;;7.77;100.00
10946;BME280;5525;42.648;23.368;2022-10-22T05:48:54;95471.66;;;7.81;100.00
10946;BME280;5525;42.648;23.368;2022-10-22T05:51:21;95470.44;;;7.92;100.00
10946;BME280;5525;42.648;23.368;2022-10-22T05:53:51;95453.81;;;7.90;100.00
10946;BME280;5525;42.648;23.368;2022-10-22T05:56:18;95470.53;;;7.87;100.00
10946;BME280;5525;42.648;23.368;2022-10-22T05:58:45;95462.47;;;7.87;100.00
10946;BME280;5525;42.648;23.368;2022-10-22T06:01:15;95469.09;;;7.94;100.00
10946;BME280;5525;42.648;23.368;2022-10-22T06:03:43;95465.03;;;7.73;100.00
10946;BME280;5525;42.648;23.368;2022-10-22T06:06:17;95465.47;;;7.80;100.00
10946;BME280;5525;42.648;23.368;2022-10-22T06:08:46;95478.31;;;7.88;100.00
10946;BME280;5525;42.648;23.368;2022-10-22T06:11:13;95468.56;;;7.92;100.00
10946;BME280;5525;42.648;23.368;2022-10-22T06:13:42;95466.38;;;8.18;100.00
10946;BME280;5525;42.648;23.368;2022-10-22T06:16:09;95467.50;;;8.35;100.00
10946;BME280;5525;42.648;23.368;2022-10-22T06:18:38;95478.41;;;8.63;100.00
10946;BME280;5525;42.648;23.368;2022-10-22T06:21:06;95477.44;;;8.91;100.00
10946;BME280;5525;42.648;23.368;2022-10-22T06:23:34;95475.00;;;9.08;100.00
10946;BME280;5525;42.648;23.368;2022-10-22T06:26:01;95485.97;;;9.30;100.00
10946;BME280;5525;42.648;23.368;2022-10-22T06:28:28;95472.34;;;9.21;100.00
10946;BME280;5525;42.648;23.368;2022-10-22T06:30:56;95483.63;;;9.10;100.00
10946;BME280;5525;42.648;23.368;2022-10-22T06:33:23;95487.56;;;8.99;100.00
10946;BME280;5525;42.648;23.368;2022-10-22T06:35:52;95476.84;;;9.26;100.00
10946;BME280;5525;42.648;23.368;2022-10-22T06:38:20;95481.72;;;9.42;100.00
10946;BME280;5525;42.648;23.368;2022-10-22T06:40:48;95464.97;;;9.13;100.00
10946;BME280;5525;42.648;23.368;2022-10-22T06:43:15;95495.81;;;9.21;100.00
10946;BME280;5525;42.648;23.368;2022-10-22T06:45:42;95489.38;;;9.49;100.00
10946;BME280;5525;42.648;23.368;2022-10-22T06:48:10;95488.19;;;9.55;100.00
10946;BME280;5525;42.648;23.368;2022-10-22T06:50:37;95488.03;;;9.78;100.00
10946;BME280;5525;42.648;23.368;2022-10-22T06:53:05;95484.34;;;9.74;100.00
10946;BME280;5525;42.648;23.368;2022-10-22T06:55:34;95490.88;;;10.14;100.00
10946;BME280;5525;42.648;23.368;2022-10-22T06:58:02;95483.06;;;10.26;100.00
10946;BME280;5525;42.648;23.368;2022-10-22T07:00:29;95464.16;;;10.40;100.00
10946;BME280;5525;42.648;23.368;2022-10-22T07:02:56;95500.16;;;10.35;100.00
10946;BME280;5525;42.648;23.368;2022-10-22T07:05:23;95472.25;;;10.40;100.00
10946;BME280;5525;42.648;23.368;2022-10-22T07:07:50;95487.34;;;10.54;100.00
10946;BME280;5525;42.648;23.368;2022-10-22T07:10:19;95493.88;;;10.75;100.00
10946;BME280;5525;42.648;23.368;2022-10-22T07:12:46;95487.50;;;10.71;100.00
10946;BME280;5525;42.648;23.368;2022-10-22T07:15:13;95472.41;;;10.92;100.00
10946;BME280;5525;42.648;23.368;2022-10-22T07:17:41;95477.53;;;11.16;100.00
10946;BME280;5525;42.648;23.368;2022-10-22T07:20:09;95474.44;;;11.31;100.00
10946;BME280;5525;42.648;23.368;2022-10-22T07:22:36;95462.94;;;11.47;100.00
10946;BME280;5525;42.648;23.368;2022-10-22T07:25:04;95463.91;;;11.73;100.00
10946;BME280;5525;42.648;23.368;2022-10-22T07:27:33;95479.13;;;11.92;100.00
10946;BME280;5525;42.648;23.368;2022-10-22T07:30:00;95470.22;;;12.00;100.00
10946;BME280;5525;42.648;23.368;2022-10-22T07:32:27;95456.22;;;11.98;100.00
10946;BME280;5525;42.648;23.368;2022-10-22T07:34:54;95473.03;;;12.34;100.00
10946;BME280;5525;42.648;23.368;2022-10-22T07:37:21;95463.38;;;12.50;98.52
10946;BME280;5525;42.648;23.368;2022-10-22T07:39:48;95468.16;;;12.61;97.11
10946;BME280;5525;42.648;23.368;2022-10-22T07:42:16;95458.78;;;12.76;94.56
10946;BME280;5525;42.648;23.368;2022-10-22T07:44:45;95443.28;;;12.59;93.32
10946;BME280;5525;42.648;23.368;2022-10-22T07:47:13;95464.53;;;12.91;92.46
10946;BME280;5525;42.648;23.368;2022-10-22T07:49:41;95450.97;;;12.83;91.18
10946;BME280;5525;42.648;23.368;2022-10-22T07:52:08;95458.94;;;12.88;91.66
10946;BME280;5525;42.648;23.368;2022-10-22T07:54:35;95444.47;;;13.09;89.31
10946;BME280;5525;42.648;23.368;2022-10-22T07:57:02;95416.69;;;12.95;87.62
10946;BME280;5525;42.648;23.368;2022-10-22T07:59:29;95434.03;;;13.28;87.39
10946;BME280;5525;42.648;23.368;2022-10-22T08:01:59;95432.94;;;12.61;90.32
10946;BME280;5525;42.648;23.368;2022-10-22T08:04:27;95448.41;;;12.78;91.15
10946;BME280;5525;42.648;23.368;2022-10-22T08:06:54;95432.16;;;13.12;89.05
10946;BME280;5525;42.648;23.368;2022-10-22T08:09:21;95437.09;;;12.76;90.07
10946;BME280;5525;42.648;23.368;2022-10-22T08:11:49;95422.59;;;13.14;86.79
10946;BME280;5525;42.648;23.368;2022-10-22T08:14:17;95445.41;;;13.13;87.68
10946;BME280;5525;42.648;23.368;2022-10-22T08:16:45;95436.28;;;13.43;85.21
10946;BME280;5525;42.648;23.368;2022-10-22T08:19:14;95414.19;;;13.62;82.42
10946;BME280;5525;42.648;23.368;2022-10-22T08:21:46;95444.94;;;13.75;83.09
10946;BME280;5525;42.648;23.368;2022-10-22T08:24:13;95417.72;;;13.45;82.20
10946;BME280;5525;42.648;23.368;2022-10-22T08:26:41;95414.31;;;13.74;80.81
10946;BME280;5525;42.648;23.368;2022-10-22T08:29:09;95417.56;;;13.97;79.09
10946;BME280;5525;42.648;23.368;2022-10-22T08:31:36;95418.25;;;13.85;79.40
10946;BME280;5525;42.648;23.368;2022-10-22T08:34:05;95419.06;;;14.44;76.50
10946;BME280;5525;42.648;23.368;2022-10-22T08:36:34;95411.41;;;14.46;74.11
10946;BME280;5525;42.648;23.368;2022-10-22T08:39:02;95425.53;;;14.60;72.75
10946;BME280;5525;42.648;23.368;2022-10-22T08:41:29;95432.38;;;14.86;70.75
10946;BME280;5525;42.648;23.368;2022-10-22T08:44:07;95429.34;;;14.88;69.11
10946;BME280;5525;42.648;23.368;2022-10-22T08:47:05;95435.63;;;14.80;69.13
10946;BME280;5525;42.648;23.368;2022-10-22T08:49:38;95433.09;;;15.16;68.21
10946;BME280;5525;42.648;23.368;2022-10-22T08:52:11;95425.81;;;15.08;66.66
10946;BME280;5525;42.648;23.368;2022-10-22T08:54:47;95436.28;;;14.77;68.90
10946;BME280;5525;42.648;23.368;2022-10-22T08:57:39;95427.28;;;14.85;68.47
10946;BME280;5525;42.648;23.368;2022-10-22T09:00:12;95396.38;;;14.89;66.96
10946;BME280;5525;42.648;23.368;2022-10-22T09:02:51;95415.59;;;14.84;67.54
10946;BME280;5525;42.648;23.368;2022-10-22T09:05:32;95421.91;;;15.50;65.01
10946;BME280;5525;42.648;23.368;2022-10-22T09:08:04;95397.81;;;15.73;62.11
10946;BME280;5525;42.648;23.368;2022-10-22T09:10:34;95433.50;;;15.59;62.66
10946;BME280;5525;42.648;23.368;2022-10-22T09:13:02;95422.56;;;15.47;63.29
10946;BME280;5525;42.648;23.368;2022-10-22T09:15:30;95394.97;;;15.69;62.14
10946;BME280;5525;42.648;23.368;2022-10-22T09:18:05;95410.94;;;15.05;65.41
10946;BME280;5525;42.648;23.368;2022-10-22T09:20:46;95399.06;;;15.87;62.32
10946;BME280;5525;42.648;23.368;2022-10-22T09:23:25;95389.09;;;16.03;60.15
10946;BME280;5525;42.648;23.368;2022-10-22T09:25:56;95418.47;;;16.10;59.24
10946;BME280;5525;42.648;23.368;2022-10-22T09:28:23;95398.16;;;15.83;59.85
10946;BME280;5525;42.648;23.368;2022-10-22T09:30:50;95398.72;;;16.61;58.04
10946;BME280;5525;42.648;23.368;2022-10-22T09:33:19;95403.41;;;17.00;56.27
10946;BME280;5525;42.648;23.368;2022-10-22T09:35:51;95383.63;;;17.03;55.00
10946;BME280;5525;42.648;23.368;2022-10-22T09:38:26;95392.25;;;17.33;53.70
10946;BME280;5525;42.648;23.368;2022-10-22T09:40:55;95377.81;;;17.05;54.18
10946;BME280;5525;42.648;23.368;2022-10-22T09:43:23;95387.88;;;17.44;53.16
10946;BME280;5525;42.648;23.368;2022-10-22T09:45:55;95389.41;;;18.50;51.15
10946;BME280;5525;42.648;23.368;2022-10-22T09:48:28;95370.75;;;22.69;40.58
10946;BME280;5525;42.648;23.368;2022-10-22T09:51:02;95373.47;;;25.69;33.92
10946;BME280;5525;42.648;23.368;2022-10-22T09:53:36;95367.94;;;28.17;29.77
10946;BME280;5525;42.648;23.368;2022-10-22T09:56:07;95382.13;;;31.15;26.31
10946;BME280;5525;42.648;23.368;2022-10-22T09:58:41;95373.72;;;32.55;24.02
10946;BME280;5525;42.648;23.368;2022-10-22T10:01:16;95376.72;;;34.09;21.92
10946;BME280;5525;42.648;23.368;2022-10-22T10:03:44;95387.31;;;31.74;23.40
10946;BME280;5525;42.648;23.368;2022-10-22T10:06:16;95390.97;;;34.24;21.03
10946;BME280;5525;42.648;23.368;2022-10-22T10:08:46;95388.63;;;35.50;19.79
10946;BME280;5525;42.648;23.368;2022-10-22T10:11:18;95377.66;;;34.77;20.36
10946;BME280;5525;42.648;23.368;2022-10-22T10:13:55;95353.16;;;34.68;20.39
10946;BME280;5525;42.648;23.368;2022-10-22T10:16:31;95370.00;;;33.30;21.37
10946;BME280;5525;42.648;23.368;2022-10-22T10:19:18;95374.34;;;32.34;22.07
10946;BME280;5525;42.648;23.368;2022-10-22T10:21:56;95369.09;;;30.64;23.68
10946;BME280;5525;42.648;23.368;2022-10-22T10:24:43;95355.00;;;32.64;22.27
10946;BME280;5525;42.648;23.368;2022-10-22T10:27:19;95345.44;;;33.89;21.07
10946;BME280;5525;42.648;23.368;2022-10-22T10:29:53;95358.00;;;34.68;20.20
10946;BME280;5525;42.648;23.368;2022-10-22T10:32:42;95338.66;;;34.61;19.82
10946;BME280;5525;42.648;23.368;2022-10-22T10:35:20;95343.16;;;35.07;19.66
10946;BME280;5525;42.648;23.368;2022-10-22T10:37:59;95349.13;;;35.63;19.26
10946;BME280;5525;42.648;23.368;2022-10-22T10:40:33;95343.00;;;35.19;19.24
10946;BME280;5525;42.648;23.368;2022-10-22T10:43:08;95336.09;;;37.17;17.76
10946;BME280;5525;42.648;23.368;2022-10-22T10:45:44;95339.34;;;36.27;18.12
10946;BME280;5525;42.648;23.368;2022-10-22T10:48:42;95323.09;;;36.22;18.40
10946;BME280;5525;42.648;23.368;2022-10-22T10:51:27;95320.94;;;36.91;18.21
10946;BME280;5525;42.648;23.368;2022-10-22T10:54:05;95333.25;;;36.29;17.67
10946;BME280;5525;42.648;23.368;2022-10-22T10:56:40;95308.09;;;33.71;20.20
10946;BME280;5525;42.648;23.368;2022-10-22T10:59:17;95295.56;;;32.98;20.98
10946;BME280;5525;42.648;23.368;2022-10-22T11:01:55;95293.00;;;34.69;19.57
10946;BME280;5525;42.648;23.368;2022-10-22T11:04:53;95291.44;;;36.04;18.28
10946;BME280;5525;42.648;23.368;2022-10-22T11:07:25;95279.97;;;35.65;18.72
10946;BME280;5525;42.648;23.368;2022-10-22T11:09:59;95274.53;;;35.26;18.80
10946;BME280;5525;42.648;23.368;2022-10-22T11:12:34;95271.84;;;36.18;18.38
10946;BME280;5525;42.648;23.368;2022-10-22T11:15:10;95273.47;;;36.10;18.15
10946;BME280;5525;42.648;23.368;2022-10-22T11:17:43;95255.56;;;34.54;19.33
10946;BME280;5525;42.648;23.368;2022-10-22T11:20:16;95259.03;;;35.66;18.93
10946;BME280;5525;42.648;23.368;2022-10-22T11:22:49;95259.84;;;35.58;19.11
10946;BME280;5525;42.648;23.368;2022-10-22T11:25:20;95255.59;;;36.22;18.61
10946;BME280;5525;42.648;23.368;2022-10-22T11:27:53;95252.38;;;35.01;19.16
10946;BME280;5525;42.648;23.368;2022-10-22T11:30:25;95231.91;;;34.15;19.90
10946;BME280;5525;42.648;23.368;2022-10-22T11:32:57;95235.28;;;33.80;20.27
10946;BME280;5525;42.648;23.368;2022-10-22T11:35:31;95218.22;;;33.87;20.30
10946;BME280;5525;42.648;23.368;2022-10-22T11:38:04;95214.22;;;34.37;20.08
10946;BME280;5525;42.648;23.368;2022-10-22T11:40:36;95222.19;;;34.07;19.75
10946;BME280;5525;42.648;23.368;2022-10-22T11:43:08;95209.16;;;33.83;20.02
10946;BME280;5525;42.648;23.368;2022-10-22T11:45:38;95210.34;;;33.64;20.24
10946;BME280;5525;42.648;23.368;2022-10-22T11:48:15;95187.06;;;33.02;20.49
10946;BME280;5525;42.648;23.368;2022-10-22T11:50:47;95188.31;;;33.01;20.81
10946;BME280;5525;42.648;23.368;2022-10-22T11:53:20;95186.22;;;33.14;20.67
10946;BME280;5525;42.648;23.368;2022-10-22T11:55:56;95206.09;;;32.73;21.05
10946;BME280;5525;42.648;23.368;2022-10-22T11:58:38;95172.75;;;32.32;21.59
10946;BME280;5525;42.648;23.368;2022-10-22T12:01:25;95197.47;;;32.33;21.58
10946;BME280;5525;42.648;23.368;2022-10-22T12:04:15;95199.34;;;32.49;21.37
10946;BME280;5525;42.648;23.368;2022-10-22T12:06:55;95192.22;;;31.48;22.80
10946;BME280;5525;42.648;23.368;2022-10-22T12:09:24;95163.91;;;29.03;25.31
10946;BME280;5525;42.648;23.368;2022-10-22T12:12:02;95184.22;;;30.80;23.37
10946;BME280;5525;42.648;23.368;2022-10-22T12:14:37;95175.56;;;30.78;23.87
10946;BME280;5525;42.648;23.368;2022-10-22T12:17:19;95182.31;;;31.05;23.44
10946;BME280;5525;42.648;23.368;2022-10-22T12:19:53;95174.94;;;30.10;24.41
10946;BME280;5525;42.648;23.368;2022-10-22T12:22:23;95163.34;;;30.11;24.38
10946;BME280;5525;42.648;23.368;2022-10-22T12:24:55;95151.88;;;29.61;25.08
10946;BME280;5525;42.648;23.368;2022-10-22T12:27:26;95164.63;;;29.42;25.15
10946;BME280;5525;42.648;23.368;2022-10-22T12:29:58;95153.75;;;29.32;25.35
10946;BME280;5525;42.648;23.368;2022-10-22T12:32:33;95140.72;;;28.90;25.42
10946;BME280;5525;42.648;23.368;2022-10-22T12:35:05;95139.69;;;28.22;25.94
10946;BME280;5525;42.648;23.368;2022-10-22T12:37:34;95172.03;;;28.32;26.28
10946;BME280;5525;42.648;23.368;2022-10-22T12:40:16;95159.16;;;27.98;26.59
10946;BME280;5525;42.648;23.368;2022-10-22T12:42:47;95151.06;;;27.84;26.72
10946;BME280;5525;42.648;23.368;2022-10-22T12:45:18;95155.19;;;26.93;27.99
10946;BME280;5525;42.648;23.368;2022-10-22T12:47:51;95145.31;;;26.92;28.27
10946;BME280;5525;42.648;23.368;2022-10-22T12:50:30;95134.06;;;27.03;28.00
10946;BME280;5525;42.648;23.368;2022-10-22T12:53:00;95136.97;;;26.59;29.00
10946;BME280;5525;42.648;23.368;2022-10-22T12:55:30;95124.72;;;25.85;29.60
10946;BME280;5525;42.648;23.368;2022-10-22T12:58:04;95144.31;;;25.61;30.02
10946;BME280;5525;42.648;23.368;2022-10-22T13:00:34;95144.84;;;25.42;30.49
10946;BME280;5525;42.648;23.368;2022-10-22T13:03:05;95135.38;;;24.74;31.31
10946;BME280;5525;42.648;23.368;2022-10-22T13:05:34;95131.53;;;24.47;31.95
10946;BME280;5525;42.648;23.368;2022-10-22T13:08:09;95123.78;;;24.03;32.49
10946;BME280;5525;42.648;23.368;2022-10-22T13:10:48;95133.25;;;23.95;33.13
10946;BME280;5525;42.648;23.368;2022-10-22T13:13:32;95126.16;;;23.03;34.49
10946;BME280;5525;42.648;23.368;2022-10-22T13:16:19;95124.56;;;22.84;35.14
10946;BME280;5525;42.648;23.368;2022-10-22T13:18:49;95111.59;;;22.92;34.95